createdAt,value
2023-01-05T00:02:24.438Z,62.50
2023-01-05T00:04:51.594Z,62.70
2023-01-05T00:07:18.309Z,63.00
2023-01-05T00:09:44.995Z,62.90
2023-01-05T00:12:11.758Z,63.00
2023-01-05T00:14:41.722Z,63.10
2023-01-05T00:17:11.819Z,63.10
2023-01-05T00:19:38.566Z,63.20
2023-01-05T00:22:14.096Z,63.30
2023-01-05T00:24:40.825Z,63.60
2023-01-05T00:27:07.591Z,63.20
2023-01-05T00:29:34.306Z,63.30
2023-01-05T00:32:02.432Z,63.30
2023-01-05T00:34:29.172Z,63.20
2023-01-05T00:36:55.849Z,63.20
2023-01-05T00:39:22.639Z,63.30
2023-01-05T00:41:49.388Z,63.30
2023-01-05T00:44:16.087Z,63.40
2023-01-05T00:46:42.810Z,63.50
2023-01-05T00:49:10.959Z,63.70
2023-01-05T00:51:37.734Z,63.60
2023-01-05T00:54:04.504Z,63.60
2023-01-05T00:56:31.245Z,63.80
2023-01-05T00:58:58.006Z,64.00
2023-01-05T01:01:24.929Z,64.40
2023-01-05T01:03:51.791Z,64.20
2023-01-05T01:06:20.187Z,64.10
2023-01-05T01:08:46.920Z,64.10
2023-01-05T01:11:13.710Z,64.00
2023-01-05T01:13:40.347Z,63.90
2023-01-05T01:16:07.615Z,63.70
2023-01-05T01:18:34.540Z,63.50
2023-01-05T01:21:01.410Z,63.40
2023-01-05T01:23:29.566Z,63.20
2023-01-05T01:25:56.405Z,63.20
2023-01-05T01:28:23.700Z,63.60
2023-01-05T01:30:50.590Z,63.50
2023-01-05T01:33:17.340Z,63.60
2023-01-05T01:35:44.180Z,63.70
2023-01-05T01:38:10.894Z,63.70
2023-01-05T01:40:44.731Z,63.60
2023-01-05T01:43:14.148Z,63.60
2023-01-05T01:45:41.105Z,63.60
2023-01-05T01:48:10.812Z,63.60
2023-01-05T01:50:41.254Z,63.40
2023-01-05T01:53:14.682Z,63.40
2023-01-05T01:55:43.703Z,63.60
2023-01-05T01:58:15.767Z,63.60
2023-01-05T02:00:43.445Z,63.60
2023-01-05T02:03:10.615Z,63.70
2023-01-05T02:05:37.413Z,63.90
2023-01-05T02:08:04.951Z,64.00
2023-01-05T02:11:01.078Z,64.10
2023-01-05T02:13:42.823Z,64.20
2023-01-05T02:16:19.813Z,64.20
2023-01-05T02:19:23.390Z,64.30
2023-01-05T02:22:01.637Z,64.10
2023-01-05T02:24:49.626Z,64.10
2023-01-05T02:27:38.952Z,63.90
2023-01-05T02:30:52.365Z,63.70
2023-01-05T02:33:31.972Z,63.20
2023-01-05T02:36:04.265Z,63.50
2023-01-05T02:38:37.754Z,63.30
2023-01-05T02:41:10.820Z,63.10
2023-01-05T02:43:37.645Z,63.30
2023-01-05T02:46:04.624Z,63.20
2023-01-05T02:48:33.772Z,63.00
2023-01-05T02:51:04.769Z,62.90
2023-01-05T02:53:35.363Z,62.80
2023-01-05T02:56:07.339Z,62.70
2023-01-05T02:58:39.177Z,63.30
2023-01-05T03:01:09.672Z,62.30
2023-01-05T03:03:41.488Z,62.10
2023-01-05T03:06:13.376Z,61.70
2023-01-05T03:08:48.064Z,61.50
2023-01-05T03:11:14.944Z,61.40
2023-01-05T03:13:44.354Z,61.60
2023-01-05T03:16:15.982Z,61.70
2023-01-05T03:18:45.594Z,61.70
2023-01-05T03:21:12.715Z,61.60
2023-01-05T03:23:39.493Z,61.90
2023-01-05T03:26:07.266Z,62.00
2023-01-05T03:28:40.279Z,62.00
2023-01-05T03:31:11.043Z,61.70
2023-01-05T03:33:45.675Z,61.70
2023-01-05T03:36:18.786Z,61.70
2023-01-05T03:38:47.614Z,61.60
2023-01-05T03:41:16.283Z,61.60
2023-01-05T03:43:43.203Z,61.30
2023-01-05T03:46:12.271Z,61.20
2023-01-05T03:48:39.047Z,61.20
2023-01-05T03:51:06.545Z,61.30
2023-01-05T03:53:34.788Z,61.40
2023-01-05T03:56:01.728Z,61.60
2023-01-05T03:58:28.452Z,61.70
2023-01-05T04:00:55.273Z,62.00
2023-01-05T04:03:26.309Z,62.30
2023-01-05T04:05:56.280Z,62.40
2023-01-05T04:08:22.973Z,62.50
2023-01-05T04:10:53.108Z,62.40
2023-01-05T04:13:19.832Z,62.30
2023-01-05T04:15:46.699Z,62.40
2023-01-05T04:18:13.551Z,62.20
2023-01-05T04:20:40.369Z,62.10
2023-01-05T04:23:07.411Z,62.00
2023-01-05T04:25:34.192Z,62.10
2023-01-05T04:28:02.269Z,62.30
2023-01-05T04:30:28.992Z,62.60
2023-01-05T04:32:55.741Z,62.30
2023-01-05T04:35:22.503Z,62.30
2023-01-05T04:37:49.282Z,62.30
2023-01-05T04:40:16.251Z,62.20
2023-01-05T04:42:43.064Z,62.20
2023-01-05T04:45:11.707Z,62.10
2023-01-05T04:47:38.502Z,61.80
2023-01-05T04:50:06.506Z,62.00
2023-01-05T04:52:33.302Z,62.00
2023-01-05T04:55:00.128Z,62.00
2023-01-05T04:57:26.825Z,61.80
2023-01-05T04:59:53.503Z,62.00
2023-01-05T05:02:21.806Z,62.20
2023-01-05T05:04:48.730Z,62.10
2023-01-05T05:07:15.504Z,62.30
2023-01-05T05:09:42.198Z,62.40
2023-01-05T05:12:08.988Z,62.50
2023-01-05T05:14:35.855Z,62.50
2023-01-05T05:17:02.637Z,62.40
2023-01-05T05:19:30.811Z,62.40
2023-01-05T05:21:57.619Z,62.40
2023-01-05T05:24:24.423Z,62.50
2023-01-05T05:26:51.190Z,62.60
2023-01-05T05:29:17.884Z,62.50
2023-01-05T05:31:44.744Z,62.40
2023-01-05T05:34:11.522Z,62.50
2023-01-05T05:36:39.601Z,62.50
2023-01-05T05:39:06.283Z,62.30
2023-01-05T05:41:33.147Z,62.10
2023-01-05T05:43:59.845Z,62.10
2023-01-05T05:46:26.913Z,61.90
2023-01-05T05:48:53.669Z,61.90
2023-01-05T05:51:20.404Z,61.90
2023-01-05T05:53:48.477Z,61.90
2023-01-05T05:56:15.172Z,62.10
2023-01-05T05:58:42.404Z,61.80
2023-01-05T06:01:09.296Z,61.50
2023-01-05T06:03:36.067Z,62.50
2023-01-05T06:06:03.511Z,61.40
2023-01-05T06:08:30.447Z,61.10
2023-01-05T06:10:58.824Z,61.30
2023-01-05T06:13:25.726Z,61.50
2023-01-05T06:15:52.684Z,61.50
2023-01-05T06:18:19.472Z,61.20
2023-01-05T06:20:46.675Z,61.20
2023-01-05T06:23:13.371Z,61.10
2023-01-05T06:25:40.726Z,61.20
2023-01-05T06:28:08.784Z,60.60
2023-01-05T06:30:35.584Z,60.40
2023-01-05T06:33:02.362Z,60.30
2023-01-05T06:35:29.030Z,60.60
2023-01-05T06:37:55.828Z,60.60
2023-01-05T06:40:22.625Z,60.80
2023-01-05T06:42:49.397Z,60.70
2023-01-05T06:45:17.621Z,60.80
2023-01-05T06:47:44.873Z,60.90
2023-01-05T06:50:12.028Z,60.90
2023-01-05T06:52:38.713Z,60.90
2023-01-05T06:55:06.388Z,60.80
2023-01-05T06:57:33.162Z,60.80
2023-01-05T06:59:59.934Z,60.60
2023-01-05T07:02:28.009Z,60.50
2023-01-05T07:04:54.664Z,60.50
2023-01-05T07:07:21.467Z,60.60
2023-01-05T07:09:48.289Z,60.60
2023-01-05T07:12:14.943Z,60.60
2023-01-05T07:14:41.706Z,60.80
2023-01-05T07:17:08.430Z,60.80
2023-01-05T07:19:36.520Z,60.90
2023-01-05T07:22:03.281Z,61.20
2023-01-05T07:24:30.048Z,61.00
2023-01-05T07:26:58.312Z,61.30
2023-01-05T07:29:25.156Z,61.60
2023-01-05T07:31:51.879Z,61.20
2023-01-05T07:34:18.723Z,61.40
2023-01-05T07:36:47.061Z,61.40
2023-01-05T07:39:14.225Z,61.50
2023-01-05T07:41:40.926Z,61.10
2023-01-05T07:44:08.024Z,61.20
2023-01-05T07:46:34.855Z,61.10
2023-01-05T07:49:01.975Z,61.20
2023-01-05T07:51:28.700Z,61.30
2023-01-05T07:53:57.631Z,61.20
2023-01-05T07:56:24.445Z,61.10
2023-01-05T07:58:51.158Z,60.80
2023-01-05T08:01:17.991Z,60.60
2023-01-05T08:03:45.417Z,60.40
2023-01-05T08:06:13.993Z,60.50
2023-01-05T08:08:41.223Z,60.40
2023-01-05T08:11:11.168Z,60.40
2023-01-05T08:13:37.886Z,60.60
2023-01-05T08:16:19.414Z,60.50
2023-01-05T08:18:46.415Z,60.60
2023-01-05T08:21:13.117Z,60.90
2023-01-05T08:23:39.945Z,61.20
2023-01-05T08:26:13.251Z,61.30
2023-01-05T08:28:40.592Z,61.50
2023-01-05T08:31:11.991Z,61.50
2023-01-05T08:33:40.709Z,61.30
2023-01-05T08:36:09.352Z,61.40
2023-01-05T08:38:36.268Z,61.30
2023-01-05T08:41:03.241Z,61.60
2023-01-05T08:43:31.263Z,61.80
2023-01-05T08:45:58.101Z,61.90
2023-01-05T08:48:24.802Z,62.10
2023-01-05T08:50:51.530Z,63.30
2023-01-05T08:53:18.216Z,62.80
2023-01-05T08:55:44.988Z,62.70
2023-01-05T08:58:11.782Z,62.80
2023-01-05T09:00:39.804Z,63.10
2023-01-05T09:03:06.691Z,63.10
2023-01-05T09:05:33.528Z,63.40
2023-01-05T09:08:00.220Z,63.20
2023-01-05T09:10:27.026Z,63.10
2023-01-05T09:12:53.760Z,63.10
2023-01-05T09:15:20.621Z,62.70
2023-01-05T09:17:48.669Z,62.90
2023-01-05T09:20:15.436Z,62.70
2023-01-05T09:22:42.106Z,62.50
2023-01-05T09:25:09.700Z,62.10
2023-01-05T09:27:36.398Z,61.90
2023-01-05T09:30:03.295Z,61.60
2023-01-05T09:32:30.146Z,61.40
2023-01-05T09:34:58.125Z,61.80
2023-01-05T09:37:24.787Z,61.80
2023-01-05T09:39:51.468Z,61.80
2023-01-05T09:42:21.297Z,61.20
2023-01-05T09:44:56.970Z,61.20
2023-01-05T09:47:31.963Z,61.10
2023-01-05T09:50:01.424Z,61.10
2023-01-05T09:52:32.813Z,61.50
2023-01-05T09:55:11.862Z,61.50
2023-01-05T09:57:41.501Z,61.40
2023-01-05T10:00:15.442Z,61.30
2023-01-05T10:02:48.543Z,61.40
2023-01-05T10:05:17.286Z,61.80
2023-01-05T10:07:50.696Z,61.70
2023-01-05T10:10:33.199Z,61.80
2023-01-05T10:13:02.289Z,61.70
2023-01-05T10:15:34.486Z,61.70
2023-01-05T10:18:08.717Z,61.30
2023-01-05T10:20:45.648Z,61.40
2023-01-05T10:23:23.590Z,61.10
2023-01-05T10:25:54.912Z,61.30
2023-01-05T10:28:34.584Z,61.30
2023-01-05T10:31:07.791Z,61.20
2023-01-05T10:33:53.137Z,61.10
2023-01-05T10:37:08.811Z,61.20
2023-01-05T10:39:56.794Z,61.40
2023-01-05T10:42:46.806Z,61.60
2023-01-05T10:45:23.626Z,61.80
2023-01-05T10:47:55.353Z,61.60
2023-01-05T10:50:32.050Z,61.70
2023-01-05T10:53:06.526Z,61.50
2023-01-05T10:55:41.390Z,60.90
2023-01-05T10:58:21.104Z,60.20
2023-01-05T11:00:48.585Z,59.30
2023-01-05T11:03:18.147Z,59.40
2023-01-05T11:05:47.234Z,59.10
2023-01-05T11:08:17.804Z,58.50
2023-01-05T11:10:51.831Z,58.90
2023-01-05T11:13:27.193Z,59.30
2023-01-05T11:15:56.836Z,59.30
2023-01-05T11:18:31.090Z,59.30
2023-01-05T11:21:10.293Z,59.50
2023-01-05T11:23:40.712Z,59.10
2023-01-05T11:26:29.299Z,58.60
2023-01-05T11:29:02.012Z,58.80
2023-01-05T11:31:34.292Z,59.30
2023-01-05T11:34:07.647Z,59.30
2023-01-05T11:36:34.474Z,59.30
2023-01-05T11:39:02.795Z,59.40
2023-01-05T11:41:29.534Z,59.10
2023-01-05T11:43:56.958Z,58.80
2023-01-05T11:46:24.164Z,58.90
2023-01-05T11:48:54.236Z,58.80
2023-01-05T11:51:36.819Z,58.90
2023-01-05T11:54:05.634Z,58.70
2023-01-05T11:56:32.550Z,58.50
2023-01-05T11:58:59.324Z,58.60
2023-01-05T12:01:51.688Z,58.20
2023-01-05T12:04:42.302Z,58.50
2023-01-05T12:07:20.746Z,58.10
2023-01-05T12:09:57.446Z,58.20
2023-01-05T12:12:37.525Z,57.80
2023-01-05T12:15:27.397Z,57.30
2023-01-05T12:18:01.756Z,57.50
2023-01-05T12:20:49.718Z,57.50
2023-01-05T12:23:34.671Z,58.00
2023-01-05T12:26:11.347Z,58.20
2023-01-05T12:29:34.520Z,58.10
2023-01-05T12:34:00.381Z,57.60
2023-01-05T12:35:18.494Z,58.10
2023-01-05T12:38:02.831Z,57.80
2023-01-05T12:40:49.609Z,56.90
2023-01-05T12:43:29.309Z,56.70
2023-01-05T12:46:07.641Z,57.60
2023-01-05T12:48:39.099Z,56.50
2023-01-05T12:51:12.372Z,56.60
2023-01-05T12:53:47.477Z,56.80
2023-01-05T12:56:23.137Z,56.10
2023-01-05T12:59:05.251Z,56.30
2023-01-05T13:01:38.271Z,56.20
2023-01-05T13:04:14.709Z,56.10
2023-01-05T13:06:47.783Z,56.30
2023-01-05T13:09:20.241Z,56.30
2023-01-05T13:11:51.832Z,55.90
2023-01-05T13:14:22.874Z,56.10
2023-01-05T13:16:57.211Z,55.40
2023-01-05T13:19:31.186Z,55.90
2023-01-05T13:22:01.510Z,56.30
2023-01-05T13:24:32.708Z,55.40
2023-01-05T13:27:01.462Z,55.90
2023-01-05T13:29:32.955Z,56.50
2023-01-05T13:32:22.331Z,55.70
2023-01-05T13:35:09.298Z,55.60
2023-01-05T13:38:09.877Z,55.80
2023-01-05T13:40:54.720Z,56.10
2023-01-05T13:43:55.908Z,55.90
2023-01-05T13:47:01.196Z,56.20
2023-01-05T13:50:06.505Z,55.70
2023-01-05T13:52:49.730Z,55.90
2023-01-05T13:55:25.782Z,55.60
2023-01-05T13:57:54.366Z,56.10
2023-01-05T14:00:25.910Z,56.50
2023-01-05T14:03:01.690Z,56.10
2023-01-05T14:05:31.772Z,55.60
2023-01-05T14:08:01.428Z,55.60
2023-01-05T14:10:30.694Z,55.50
2023-01-05T14:12:58.271Z,56.10
2023-01-05T14:15:34.340Z,56.10
2023-01-05T14:18:02.995Z,56.10
2023-01-05T14:20:32.994Z,56.10
2023-01-05T14:23:01.348Z,56.30
2023-01-05T14:25:59.063Z,55.90
2023-01-05T14:28:47.357Z,55.40
2023-01-05T14:31:36.849Z,55.70
2023-01-05T14:34:06.843Z,55.70
2023-01-05T14:36:37.263Z,56.00
2023-01-05T14:39:07.688Z,55.80
2023-01-05T14:41:34.813Z,56.20
2023-01-05T14:44:04.010Z,56.00
2023-01-05T14:46:46.221Z,55.90
2023-01-05T14:49:22.522Z,55.90
2023-01-05T14:51:54.368Z,56.10
2023-01-05T14:54:36.495Z,56.20
2023-01-05T14:57:35.127Z,56.00
2023-01-05T15:00:06.562Z,55.90
2023-01-05T15:02:41.887Z,56.00
2023-01-05T15:05:14.521Z,56.20
2023-01-05T15:07:50.761Z,56.20
2023-01-05T15:10:46.905Z,56.10
2023-01-05T15:13:37.105Z,56.30
2023-01-05T15:19:12.816Z,56.10
2023-01-05T15:21:57.374Z,55.70
2023-01-05T15:24:53.684Z,56.00
2023-01-05T15:27:40.962Z,55.90
2023-01-05T15:30:22.276Z,55.80
2023-01-05T15:32:57.440Z,55.50
2023-01-05T15:35:29.918Z,55.70
2023-01-05T15:38:13.366Z,55.50
2023-01-05T15:40:40.093Z,55.70
2023-01-05T15:43:14.715Z,55.90
2023-01-05T15:45:42.392Z,55.90
2023-01-05T15:48:15.066Z,56.10
2023-01-05T15:50:46.248Z,55.30
2023-01-05T15:53:27.237Z,55.40
2023-01-05T15:55:54.592Z,55.50
2023-01-05T15:58:25.724Z,56.00
2023-01-05T16:01:09.488Z,56.10
2023-01-05T16:04:09.311Z,56.00
2023-01-05T16:06:38.337Z,55.70
2023-01-05T16:09:20.179Z,56.40
2023-01-05T16:11:50.181Z,56.20
2023-01-05T16:14:22.199Z,56.30
2023-01-05T16:16:54.540Z,56.40
2023-01-05T16:19:26.811Z,56.30
2023-01-05T16:21:58.211Z,56.50
2023-01-05T16:24:32.351Z,56.70
2023-01-05T16:27:04.105Z,56.70
2023-01-05T16:29:40.428Z,56.60
2023-01-05T16:32:29.777Z,56.70
2023-01-05T16:35:22.799Z,56.80
2023-01-05T16:38:14.793Z,56.70
2023-01-05T16:41:10.498Z,56.90
2023-01-05T16:43:42.619Z,56.90
2023-01-05T16:46:36.366Z,57.20
2023-01-05T16:49:57.046Z,56.90
2023-01-05T16:52:28.925Z,56.90
2023-01-05T16:55:27.463Z,57.20
2023-01-05T16:57:59.698Z,57.00
2023-01-05T17:00:38.352Z,57.20
2023-01-05T17:03:28.640Z,57.20
2023-01-05T17:06:02.869Z,57.10
2023-01-05T17:08:33.232Z,57.10
2023-01-05T17:11:01.541Z,57.10
2023-01-05T17:13:35.750Z,57.10
2023-01-05T17:16:02.885Z,57.30
2023-01-05T17:19:17.495Z,57.10
2023-01-05T17:21:54.205Z,57.00
2023-01-05T17:24:25.663Z,57.30
2023-01-05T17:26:52.667Z,57.20
2023-01-05T17:29:22.485Z,57.20
2023-01-05T17:31:52.689Z,57.00
2023-01-05T17:34:20.612Z,57.00
2023-01-05T17:36:50.032Z,57.20
2023-01-05T17:39:21.084Z,57.20
2023-01-05T17:41:57.845Z,57.10
2023-01-05T17:44:26.451Z,57.20
2023-01-05T17:46:55.249Z,57.20
2023-01-05T17:49:22.960Z,57.40
2023-01-05T17:51:52.326Z,57.00
2023-01-05T17:54:21.595Z,57.10
2023-01-05T17:56:51.387Z,57.10
2023-01-05T17:59:18.556Z,57.10
2023-01-05T18:01:47.868Z,56.90
2023-01-05T18:04:17.754Z,56.90
2023-01-05T18:06:45.573Z,56.90
2023-01-05T18:09:12.614Z,57.10
2023-01-05T18:11:46.057Z,57.00
2023-01-05T18:14:18.557Z,57.00
2023-01-05T18:16:49.601Z,57.10
2023-01-05T18:19:24.006Z,57.00
2023-01-05T18:21:50.968Z,57.10
2023-01-05T18:24:20.464Z,57.40
2023-01-05T18:26:54.155Z,57.40
2023-01-05T18:29:25.591Z,57.30
2023-01-05T18:31:56.658Z,57.50
2023-01-05T18:34:23.682Z,57.50
2023-01-05T18:36:58.300Z,57.50
2023-01-05T18:39:33.091Z,57.60
2023-01-05T18:42:01.507Z,57.70
2023-01-05T18:44:28.553Z,57.80
2023-01-05T18:46:56.994Z,57.60
2023-01-05T18:49:26.033Z,57.50
2023-01-05T18:51:55.291Z,57.50
2023-01-05T18:54:27.279Z,57.50
2023-01-05T18:56:58.105Z,57.50
2023-01-05T18:59:25.849Z,58.10
2023-01-05T19:01:57.191Z,57.20
2023-01-05T19:04:24.197Z,57.20
2023-01-05T19:07:01.007Z,57.10
2023-01-05T19:09:28.418Z,57.10
2023-01-05T19:11:57.279Z,57.20
2023-01-05T19:14:32.647Z,57.30
2023-01-05T19:17:03.213Z,57.30
2023-01-05T19:19:30.429Z,57.40
2023-01-05T19:22:03.438Z,57.30
2023-01-05T19:24:30.639Z,57.40
2023-01-05T19:27:02.832Z,57.50
2023-01-05T19:29:56.417Z,57.50
2023-01-05T19:32:24.926Z,57.50
2023-01-05T19:34:52.809Z,57.40
2023-01-05T19:37:26.262Z,57.60
2023-01-05T19:39:53.377Z,57.30
2023-01-05T19:42:20.741Z,57.60
2023-01-05T19:44:49.519Z,57.80
2023-01-05T19:47:19.367Z,58.00
2023-01-05T19:49:49.652Z,57.70
2023-01-05T19:52:16.505Z,57.90
2023-01-05T19:54:48.532Z,58.30
2023-01-05T19:57:18.267Z,58.50
2023-01-05T19:59:58.973Z,58.40
2023-01-05T20:02:52.697Z,58.40
2023-01-05T20:05:29.221Z,58.50
2023-01-05T20:08:01.082Z,58.60
2023-01-05T20:10:28.049Z,58.60
2023-01-05T20:13:03.199Z,58.70
2023-01-05T20:15:38.523Z,58.60
2023-01-05T20:18:06.279Z,58.60
2023-01-05T20:21:10.799Z,58.80
2023-01-05T20:23:45.144Z,58.80
2023-01-05T20:26:15.969Z,58.60
2023-01-05T20:29:09.851Z,59.10
2023-01-05T20:31:41.774Z,58.70
2023-01-05T20:34:11.476Z,58.60
2023-01-05T20:36:38.578Z,58.70
2023-01-05T20:39:07.879Z,58.80
2023-01-05T20:41:37.062Z,58.70
2023-01-05T20:44:04.539Z,58.50
2023-01-05T20:46:34.695Z,58.40
2023-01-05T20:49:04.293Z,58.60
2023-01-05T20:51:31.253Z,59.30
2023-01-05T20:54:01.849Z,58.70
2023-01-05T20:56:34.977Z,58.80
2023-01-05T20:59:04.086Z,58.90
2023-01-05T21:01:31.068Z,58.80
2023-01-05T21:03:57.885Z,59.40
2023-01-05T21:06:25.430Z,58.70
2023-01-05T21:08:56.783Z,58.80
2023-01-05T21:11:24.298Z,58.90
2023-01-05T21:13:55.518Z,58.70
2023-01-05T21:16:27.475Z,58.90
2023-01-05T21:18:55.337Z,59.10
2023-01-05T21:21:26.937Z,59.10
2023-01-05T21:23:54.485Z,59.10
2023-01-05T21:26:27.018Z,58.90
2023-01-05T21:28:55.394Z,58.50
2023-01-05T21:31:24.033Z,58.50
2023-01-05T21:33:51.473Z,58.80
2023-01-05T21:36:21.503Z,58.70
2023-01-05T21:39:01.826Z,58.70
2023-01-05T21:41:30.568Z,58.80
2023-01-05T21:43:58.592Z,58.60
2023-01-05T21:46:25.344Z,58.60
2023-01-05T21:48:52.042Z,58.60
2023-01-05T21:51:19.103Z,58.60
2023-01-05T21:53:45.819Z,58.60
2023-01-05T21:56:15.018Z,58.50
2023-01-05T21:58:41.691Z,58.30
2023-01-05T22:01:09.829Z,58.30
2023-01-05T22:03:36.744Z,58.30
2023-01-05T22:06:03.627Z,58.20
2023-01-05T22:08:30.340Z,58.30
2023-01-05T22:10:58.375Z,58.40
2023-01-05T22:13:25.520Z,58.50
2023-01-05T22:15:52.779Z,58.30
2023-01-05T22:18:22.618Z,58.40
2023-01-05T22:20:52.326Z,58.40
2023-01-05T22:23:19.438Z,58.30
2023-01-05T22:25:46.103Z,58.30
2023-01-05T22:28:12.859Z,58.30
2023-01-05T22:30:39.549Z,58.10
2023-01-05T22:33:06.199Z,58.00
2023-01-05T22:35:38.873Z,58.20
2023-01-05T22:38:05.511Z,58.30
2023-01-05T22:40:32.243Z,58.20
2023-01-05T22:42:58.944Z,58.20
2023-01-05T22:45:25.591Z,58.00
2023-01-05T22:47:52.326Z,58.20
2023-01-05T22:50:18.991Z,58.20
2023-01-05T22:52:47.044Z,58.30
2023-01-05T22:55:13.795Z,58.60
2023-01-05T22:57:40.482Z,58.40
2023-01-05T23:00:07.670Z,58.30
2023-01-05T23:02:34.404Z,58.00
2023-01-05T23:05:03.138Z,58.00
2023-01-05T23:07:30.664Z,57.90
2023-01-05T23:09:58.685Z,57.90
2023-01-05T23:12:25.346Z,57.80
2023-01-05T23:14:52.050Z,57.90
2023-01-05T23:17:18.751Z,57.90
2023-01-05T23:19:45.446Z,58.10
2023-01-05T23:22:12.164Z,58.00
2023-01-05T23:24:38.905Z,58.10
2023-01-05T23:27:06.928Z,58.00
2023-01-05T23:29:34.031Z,58.10
2023-01-05T23:32:01.089Z,57.90
2023-01-05T23:34:27.852Z,57.90
2023-01-05T23:36:54.602Z,58.00
2023-01-05T23:39:21.291Z,58.00
2023-01-05T23:41:47.959Z,57.90
2023-01-05T23:44:16.000Z,57.90
2023-01-05T23:46:42.730Z,57.90
2023-01-05T23:49:09.471Z,57.90
2023-01-05T23:51:36.149Z,57.80
2023-01-05T23:54:02.795Z,57.80
2023-01-05T23:56:30.650Z,57.70
2023-01-05T23:58:59.023Z,57.70
